sensor_id;sensor_type;location;lat;lon;timestamp;temperature;humidity
33093;DHT22;19456;46.104;12.908;2023-08-06T00:00:08;17.80;99.90
33093;DHT22;19456;46.104;12.908;2023-08-06T00:02:34;17.90;99.90
33093;DHT22;19456;46.104;12.908;2023-08-06T00:04:59;17.90;99.90
33093;DHT22;19456;46.104;12.908;2023-08-06T00:07:25;18.00;99.90
33093;DHT22;19456;46.104;12.908;2023-08-06T00:09:50;18.00;99.90
33093;DHT22;19456;46.104;12.908;2023-08-06T00:12:16;18.10;99.90
33093;DHT22;19456;46.104;12.908;2023-08-06T00:14:42;18.30;99.90
33093;DHT22;19456;46.104;12.908;2023-08-06T00:17:08;18.40;99.90
33093;DHT22;19456;46.104;12.908;2023-08-06T00:19:33;18.40;99.90
33093;DHT22;19456;46.104;12.908;2023-08-06T00:21:59;18.50;99.90
33093;DHT22;19456;46.104;12.908;2023-08-06T00:24:24;18.60;99.90
33093;DHT22;19456;46.104;12.908;2023-08-06T00:26:50;18.60;99.90
33093;DHT22;19456;46.104;12.908;2023-08-06T00:29:15;18.60;99.90
33093;DHT22;19456;46.104;12.908;2023-08-06T00:31:41;18.50;99.90
33093;DHT22;19456;46.104;12.908;2023-08-06T00:34:06;18.50;99.90
33093;DHT22;19456;46.104;12.908;2023-08-06T00:36:32;18.50;99.90
33093;DHT22;19456;46.104;12.908;2023-08-06T00:38:58;18.50;99.90
33093;DHT22;19456;46.104;12.908;2023-08-06T00:41:23;18.50;99.90
33093;DHT22;19456;46.104;12.908;2023-08-06T00:43:49;18.50;99.90
33093;DHT22;19456;46.104;12.908;2023-08-06T00:46:14;18.50;99.90
33093;DHT22;19456;46.104;12.908;2023-08-06T00:48:40;18.50;99.90
33093;DHT22;19456;46.104;12.908;2023-08-06T00:51:07;18.50;99.90
33093;DHT22;19456;46.104;12.908;2023-08-06T00:53:33;18.40;99.90
33093;DHT22;19456;46.104;12.908;2023-08-06T00:55:59;18.40;99.90
33093;DHT22;19456;46.104;12.908;2023-08-06T00:58:25;18.30;99.90
33093;DHT22;19456;46.104;12.908;2023-08-06T01:00:51;18.30;99.90
33093;DHT22;19456;46.104;12.908;2023-08-06T01:03:16;18.30;99.90
33093;DHT22;19456;46.104;12.908;2023-08-06T01:05:42;18.30;99.90
33093;DHT22;19456;46.104;12.908;2023-08-06T01:15:41;17.90;99.90
33093;DHT22;19456;46.104;12.908;2023-08-06T01:18:08;17.90;99.90
33093;DHT22;19456;46.104;12.908;2023-08-06T01:20:34;18.00;99.90
33093;DHT22;19456;46.104;12.908;2023-08-06T01:22:59;17.90;99.90
33093;DHT22;19456;46.104;12.908;2023-08-06T01:26:09;17.90;99.90
33093;DHT22;19456;46.104;12.908;2023-08-06T01:28:16;17.90;99.90
33093;DHT22;19456;46.104;12.908;2023-08-06T01:30:44;17.90;99.90
33093;DHT22;19456;46.104;12.908;2023-08-06T01:33:13;17.80;99.90
33093;DHT22;19456;46.104;12.908;2023-08-06T01:35:39;17.80;99.90
33093;DHT22;19456;46.104;12.908;2023-08-06T01:38:06;17.80;99.90
33093;DHT22;19456;46.104;12.908;2023-08-06T01:40:31;17.90;99.90
33093;DHT22;19456;46.104;12.908;2023-08-06T01:42:58;17.90;99.90
33093;DHT22;19456;46.104;12.908;2023-08-06T01:45:23;17.80;99.90
33093;DHT22;19456;46.104;12.908;2023-08-06T01:47:49;17.90;99.90
33093;DHT22;19456;46.104;12.908;2023-08-06T01:50:14;17.90;99.90
33093;DHT22;19456;46.104;12.908;2023-08-06T01:52:40;17.90;99.90
33093;DHT22;19456;46.104;12.908;2023-08-06T01:55:06;17.90;99.90
33093;DHT22;19456;46.104;12.908;2023-08-06T01:57:31;17.90;99.90
33093;DHT22;19456;46.104;12.908;2023-08-06T01:59:57;17.90;99.90
33093;DHT22;19456;46.104;12.908;2023-08-06T02:02:22;17.90;99.90
33093;DHT22;19456;46.104;12.908;2023-08-06T02:04:48;17.90;99.90
33093;DHT22;19456;46.104;12.908;2023-08-06T02:07:13;17.90;99.90
33093;DHT22;19456;46.104;12.908;2023-08-06T02:09:39;17.90;99.90
33093;DHT22;19456;46.104;12.908;2023-08-06T02:12:05;17.90;99.90
33093;DHT22;19456;46.104;12.908;2023-08-06T02:14:31;17.80;99.90
33093;DHT22;19456;46.104;12.908;2023-08-06T02:16:56;17.70;99.90
33093;DHT22;19456;46.104;12.908;2023-08-06T02:19:22;17.70;99.90
33093;DHT22;19456;46.104;12.908;2023-08-06T02:21:47;17.80;99.90
33093;DHT22;19456;46.104;12.908;2023-08-06T02:24:13;17.70;99.90
33093;DHT22;19456;46.104;12.908;2023-08-06T02:26:38;17.70;99.90
33093;DHT22;19456;46.104;12.908;2023-08-06T02:29:04;17.70;99.90
33093;DHT22;19456;46.104;12.908;2023-08-06T02:31:29;17.70;99.90
33093;DHT22;19456;46.104;12.908;2023-08-06T02:33:55;17.80;99.90
33093;DHT22;19456;46.104;12.908;2023-08-06T02:36:21;17.70;99.90
33093;DHT22;19456;46.104;12.908;2023-08-06T02:38:46;17.60;99.90
33093;DHT22;19456;46.104;12.908;2023-08-06T02:41:12;17.50;99.90
33093;DHT22;19456;46.104;12.908;2023-08-06T02:43:37;17.40;99.90
33093;DHT22;19456;46.104;12.908;2023-08-06T02:46:03;17.30;99.90
33093;DHT22;19456;46.104;12.908;2023-08-06T02:48:29;17.30;99.90
33093;DHT22;19456;46.104;12.908;2023-08-06T02:50:58;17.30;99.90
33093;DHT22;19456;46.104;12.908;2023-08-06T02:53:24;17.30;99.90
33093;DHT22;19456;46.104;12.908;2023-08-06T02:55:50;17.30;99.90
33093;DHT22;19456;46.104;12.908;2023-08-06T02:58:16;17.30;99.90
33093;DHT22;19456;46.104;12.908;2023-08-06T03:00:42;17.30;99.90
33093;DHT22;19456;46.104;12.908;2023-08-06T03:03:08;17.40;99.90
33093;DHT22;19456;46.104;12.908;2023-08-06T03:05:34;17.30;99.90
33093;DHT22;19456;46.104;12.908;2023-08-06T03:07:59;17.40;99.90
33093;DHT22;19456;46.104;12.908;2023-08-06T03:10:25;17.50;99.90
33093;DHT22;19456;46.104;12.908;2023-08-06T03:12:51;17.60;99.90
33093;DHT22;19456;46.104;12.908;2023-08-06T03:15:16;17.60;99.90
33093;DHT22;19456;46.104;12.908;2023-08-06T03:17:42;17.70;99.90
33093;DHT22;19456;46.104;12.908;2023-08-06T03:20:07;17.70;99.90
33093;DHT22;19456;46.104;12.908;2023-08-06T03:22:33;17.70;99.90
33093;DHT22;19456;46.104;12.908;2023-08-06T03:24:58;17.70;99.90
33093;DHT22;19456;46.104;12.908;2023-08-06T03:27:24;17.70;99.90
33093;DHT22;19456;46.104;12.908;2023-08-06T03:29:50;17.80;99.90
33093;DHT22;19456;46.104;12.908;2023-08-06T03:32:15;17.80;99.90
33093;DHT22;19456;46.104;12.908;2023-08-06T03:34:41;17.90;99.90
33093;DHT22;19456;46.104;12.908;2023-08-06T03:37:06;18.00;99.90
33093;DHT22;19456;46.104;12.908;2023-08-06T03:39:32;18.00;99.90
33093;DHT22;19456;46.104;12.908;2023-08-06T03:41:57;18.00;99.90
33093;DHT22;19456;46.104;12.908;2023-08-06T03:44:23;18.00;99.90
33093;DHT22;19456;46.104;12.908;2023-08-06T03:46:48;18.10;99.90
33093;DHT22;19456;46.104;12.908;2023-08-06T03:49:14;18.00;99.90
33093;DHT22;19456;46.104;12.908;2023-08-06T03:51:39;18.00;99.90
33093;DHT22;19456;46.104;12.908;2023-08-06T03:54:05;18.10;99.90
33093;DHT22;19456;46.104;12.908;2023-08-06T03:56:30;18.10;99.90
33093;DHT22;19456;46.104;12.908;2023-08-06T03:58:56;18.10;99.90
33093;DHT22;19456;46.104;12.908;2023-08-06T04:01:22;18.00;99.90
33093;DHT22;19456;46.104;12.908;2023-08-06T04:03:47;18.00;99.90
33093;DHT22;19456;46.104;12.908;2023-08-06T04:06:13;17.90;99.90
33093;DHT22;19456;46.104;12.908;2023-08-06T04:08:38;17.80;99.90
33093;DHT22;19456;46.104;12.908;2023-08-06T04:11:04;17.60;99.90
33093;DHT22;19456;46.104;12.908;2023-08-06T04:13:29;17.50;99.90
33093;DHT22;19456;46.104;12.908;2023-08-06T04:15:55;17.50;99.90
33093;DHT22;19456;46.104;12.908;2023-08-06T04:18:21;17.50;99.90
33093;DHT22;19456;46.104;12.908;2023-08-06T04:20:46;17.60;99.90
33093;DHT22;19456;46.104;12.908;2023-08-06T04:23:13;17.50;99.90
33093;DHT22;19456;46.104;12.908;2023-08-06T04:25:38;17.50;99.90
33093;DHT22;19456;46.104;12.908;2023-08-06T04:28:04;17.40;99.90
33093;DHT22;19456;46.104;12.908;2023-08-06T04:30:30;17.40;99.90
33093;DHT22;19456;46.104;12.908;2023-08-06T04:32:58;17.40;99.90
33093;DHT22;19456;46.104;12.908;2023-08-06T04:35:23;17.50;99.90
33093;DHT22;19456;46.104;12.908;2023-08-06T04:37:49;17.40;99.90
33093;DHT22;19456;46.104;12.908;2023-08-06T04:40:14;17.40;99.90
33093;DHT22;19456;46.104;12.908;2023-08-06T04:42:40;17.30;99.90
33093;DHT22;19456;46.104;12.908;2023-08-06T04:45:06;17.30;99.90
33093;DHT22;19456;46.104;12.908;2023-08-06T04:47:31;17.40;99.90
33093;DHT22;19456;46.104;12.908;2023-08-06T04:49:57;17.40;99.90
33093;DHT22;19456;46.104;12.908;2023-08-06T04:52:23;17.50;99.90
33093;DHT22;19456;46.104;12.908;2023-08-06T04:54:48;17.60;99.90
33093;DHT22;19456;46.104;12.908;2023-08-06T04:57:14;17.60;99.90
33093;DHT22;19456;46.104;12.908;2023-08-06T04:59:39;17.70;99.90
33093;DHT22;19456;46.104;12.908;2023-08-06T05:02:05;17.70;99.90
33093;DHT22;19456;46.104;12.908;2023-08-06T05:04:30;17.70;99.90
33093;DHT22;19456;46.104;12.908;2023-08-06T05:06:56;17.80;99.90
33093;DHT22;19456;46.104;12.908;2023-08-06T05:09:21;17.80;99.90
33093;DHT22;19456;46.104;12.908;2023-08-06T05:11:47;17.60;99.90
33093;DHT22;19456;46.104;12.908;2023-08-06T05:14:13;17.60;99.90
33093;DHT22;19456;46.104;12.908;2023-08-06T05:16:38;17.70;99.90
33093;DHT22;19456;46.104;12.908;2023-08-06T05:19:04;17.80;99.90
33093;DHT22;19456;46.104;12.908;2023-08-06T05:21:30;17.90;99.90
33093;DHT22;19456;46.104;12.908;2023-08-06T05:23:55;18.00;99.90
33093;DHT22;19456;46.104;12.908;2023-08-06T05:26:21;18.00;99.90
33093;DHT22;19456;46.104;12.908;2023-08-06T05:28:46;18.10;99.90
33093;DHT22;19456;46.104;12.908;2023-08-06T05:31:12;18.20;99.90
33093;DHT22;19456;46.104;12.908;2023-08-06T05:33:37;18.20;99.90
33093;DHT22;19456;46.104;12.908;2023-08-06T05:36:03;18.30;99.90
33093;DHT22;19456;46.104;12.908;2023-08-06T05:38:29;18.30;99.90
33093;DHT22;19456;46.104;12.908;2023-08-06T05:40:55;18.40;99.90
33093;DHT22;19456;46.104;12.908;2023-08-06T05:43:21;18.50;99.90
33093;DHT22;19456;46.104;12.908;2023-08-06T05:45:48;18.50;99.90
33093;DHT22;19456;46.104;12.908;2023-08-06T05:48:14;18.50;99.90
33093;DHT22;19456;46.104;12.908;2023-08-06T05:50:40;18.50;99.90
33093;DHT22;19456;46.104;12.908;2023-08-06T05:53:05;18.50;99.90
33093;DHT22;19456;46.104;12.908;2023-08-06T05:55:31;18.60;99.90
33093;DHT22;19456;46.104;12.908;2023-08-06T05:57:58;18.60;99.90
33093;DHT22;19456;46.104;12.908;2023-08-06T06:00:23;18.60;99.90
33093;DHT22;19456;46.104;12.908;2023-08-06T06:02:49;18.70;99.90
33093;DHT22;19456;46.104;12.908;2023-08-06T06:05:14;18.70;99.90
33093;DHT22;19456;46.104;12.908;2023-08-06T06:07:40;18.70;99.90
33093;DHT22;19456;46.104;12.908;2023-08-06T06:10:06;18.70;99.90
33093;DHT22;19456;46.104;12.908;2023-08-06T06:12:31;18.60;99.90
33093;DHT22;19456;46.104;12.908;2023-08-06T06:14:57;18.70;99.90
33093;DHT22;19456;46.104;12.908;2023-08-06T06:17:22;18.70;99.90
33093;DHT22;19456;46.104;12.908;2023-08-06T06:19:48;18.80;99.90
33093;DHT22;19456;46.104;12.908;2023-08-06T06:22:14;18.80;99.90
33093;DHT22;19456;46.104;12.908;2023-08-06T06:24:39;18.80;99.90
33093;DHT22;19456;46.104;12.908;2023-08-06T06:27:05;18.90;99.90
33093;DHT22;19456;46.104;12.908;2023-08-06T06:29:30;19.00;99.90
33093;DHT22;19456;46.104;12.908;2023-08-06T06:31:56;19.00;99.90
33093;DHT22;19456;46.104;12.908;2023-08-06T06:34:21;19.00;99.90
33093;DHT22;19456;46.104;12.908;2023-08-06T06:36:47;19.00;99.90
33093;DHT22;19456;46.104;12.908;2023-08-06T06:39:13;19.00;99.90
33093;DHT22;19456;46.104;12.908;2023-08-06T06:41:38;19.10;99.90
33093;DHT22;19456;46.104;12.908;2023-08-06T06:44:05;19.10;99.90
33093;DHT22;19456;46.104;12.908;2023-08-06T06:46:31;19.20;99.90
33093;DHT22;19456;46.104;12.908;2023-08-06T06:48:56;19.10;99.90
33093;DHT22;19456;46.104;12.908;2023-08-06T06:51:22;19.20;99.90
33093;DHT22;19456;46.104;12.908;2023-08-06T06:53:47;19.30;99.90
33093;DHT22;19456;46.104;12.908;2023-08-06T06:56:13;19.50;99.90
33093;DHT22;19456;46.104;12.908;2023-08-06T06:58:38;19.60;99.90
33093;DHT22;19456;46.104;12.908;2023-08-06T07:01:06;19.70;99.90
33093;DHT22;19456;46.104;12.908;2023-08-06T07:03:32;19.70;99.90
33093;DHT22;19456;46.104;12.908;2023-08-06T07:05:57;19.80;99.90
33093;DHT22;19456;46.104;12.908;2023-08-06T07:08:26;19.90;99.90
33093;DHT22;19456;46.104;12.908;2023-08-06T07:10:59;20.10;99.90
33093;DHT22;19456;46.104;12.908;2023-08-06T07:13:25;20.20;99.90
33093;DHT22;19456;46.104;12.908;2023-08-06T07:15:50;20.50;99.90
33093;DHT22;19456;46.104;12.908;2023-08-06T07:18:16;20.60;99.90
33093;DHT22;19456;46.104;12.908;2023-08-06T07:20:41;20.80;99.90
33093;DHT22;19456;46.104;12.908;2023-08-06T07:23:07;20.80;99.90
33093;DHT22;19456;46.104;12.908;2023-08-06T07:25:33;20.90;99.90
33093;DHT22;19456;46.104;12.908;2023-08-06T07:27:58;21.00;99.90
33093;DHT22;19456;46.104;12.908;2023-08-06T07:30:24;21.10;99.90
33093;DHT22;19456;46.104;12.908;2023-08-06T07:32:49;21.20;99.90
33093;DHT22;19456;46.104;12.908;2023-08-06T07:35:15;21.30;99.90
33093;DHT22;19456;46.104;12.908;2023-08-06T07:37:40;21.40;99.90
33093;DHT22;19456;46.104;12.908;2023-08-06T07:40:06;21.50;99.90
33093;DHT22;19456;46.104;12.908;2023-08-06T07:42:35;21.50;99.90
33093;DHT22;19456;46.104;12.908;2023-08-06T07:45:01;21.50;99.90
33093;DHT22;19456;46.104;12.908;2023-08-06T07:47:27;21.50;99.90
33093;DHT22;19456;46.104;12.908;2023-08-06T07:49:52;21.60;99.90
33093;DHT22;19456;46.104;12.908;2023-08-06T07:52:18;21.60;99.90
33093;DHT22;19456;46.104;12.908;2023-08-06T07:54:43;21.60;99.90
33093;DHT22;19456;46.104;12.908;2023-08-06T07:57:09;21.50;99.90
33093;DHT22;19456;46.104;12.908;2023-08-06T07:59:35;21.50;99.90
33093;DHT22;19456;46.104;12.908;2023-08-06T08:02:01;21.50;99.90
33093;DHT22;19456;46.104;12.908;2023-08-06T08:04:26;21.50;99.90
33093;DHT22;19456;46.104;12.908;2023-08-06T08:06:52;21.50;99.90
33093;DHT22;19456;46.104;12.908;2023-08-06T08:09:17;21.60;99.90
33093;DHT22;19456;46.104;12.908;2023-08-06T08:11:43;21.60;99.90
33093;DHT22;19456;46.104;12.908;2023-08-06T08:14:09;21.70;99.90
33093;DHT22;19456;46.104;12.908;2023-08-06T08:16:34;21.80;99.90
33093;DHT22;19456;46.104;12.908;2023-08-06T08:19:00;21.80;99.90
33093;DHT22;19456;46.104;12.908;2023-08-06T08:21:25;21.70;99.90
33093;DHT22;19456;46.104;12.908;2023-08-06T08:23:51;21.50;99.90
33093;DHT22;19456;46.104;12.908;2023-08-06T08:26:16;21.50;99.90
33093;DHT22;19456;46.104;12.908;2023-08-06T08:28:42;21.60;99.90
33093;DHT22;19456;46.104;12.908;2023-08-06T08:31:08;21.50;99.90
33093;DHT22;19456;46.104;12.908;2023-08-06T08:33:34;21.60;99.90
33093;DHT22;19456;46.104;12.908;2023-08-06T08:36:00;21.70;99.90
33093;DHT22;19456;46.104;12.908;2023-08-06T08:38:25;21.80;99.90
33093;DHT22;19456;46.104;12.908;2023-08-06T08:40:51;21.80;99.90
33093;DHT22;19456;46.104;12.908;2023-08-06T08:43:20;21.90;99.90
33093;DHT22;19456;46.104;12.908;2023-08-06T08:45:46;21.90;99.90
33093;DHT22;19456;46.104;12.908;2023-08-06T08:48:14;21.80;99.90
33093;DHT22;19456;46.104;12.908;2023-08-06T08:50:42;21.80;99.90
33093;DHT22;19456;46.104;12.908;2023-08-06T08:53:08;21.80;99.90
33093;DHT22;19456;46.104;12.908;2023-08-06T08:55:35;21.90;99.90
33093;DHT22;19456;46.104;12.908;2023-08-06T08:58:02;21.80;99.90
33093;DHT22;19456;46.104;12.908;2023-08-06T09:00:28;21.90;99.90
33093;DHT22;19456;46.104;12.908;2023-08-06T09:02:54;21.90;99.90
33093;DHT22;19456;46.104;12.908;2023-08-06T09:05:20;22.00;99.90
33093;DHT22;19456;46.104;12.908;2023-08-06T09:07:47;22.10;99.90
33093;DHT22;19456;46.104;12.908;2023-08-06T09:10:14;22.20;99.90
33093;DHT22;19456;46.104;12.908;2023-08-06T09:12:43;22.30;99.90
33093;DHT22;19456;46.104;12.908;2023-08-06T09:15:10;22.40;99.90
33093;DHT22;19456;46.104;12.908;2023-08-06T09:17:36;22.20;99.90
33093;DHT22;19456;46.104;12.908;2023-08-06T09:20:35;22.40;99.90
33093;DHT22;19456;46.104;12.908;2023-08-06T09:22:53;22.50;99.90
33093;DHT22;19456;46.104;12.908;2023-08-06T09:25:23;22.60;99.90
33093;DHT22;19456;46.104;12.908;2023-08-06T09:27:52;22.70;99.90
33093;DHT22;19456;46.104;12.908;2023-08-06T09:30:30;22.70;99.90
33093;DHT22;19456;46.104;12.908;2023-08-06T09:32:59;22.80;99.90
33093;DHT22;19456;46.104;12.908;2023-08-06T09:35:25;22.80;99.90
33093;DHT22;19456;46.104;12.908;2023-08-06T09:37:50;22.80;99.90
33093;DHT22;19456;46.104;12.908;2023-08-06T09:40:31;22.90;99.90
33093;DHT22;19456;46.104;12.908;2023-08-06T09:42:57;22.80;99.90
33093;DHT22;19456;46.104;12.908;2023-08-06T09:45:30;22.70;99.90
33093;DHT22;19456;46.104;12.908;2023-08-06T09:47:56;22.90;99.90
33093;DHT22;19456;46.104;12.908;2023-08-06T09:50:22;23.10;99.90
33093;DHT22;19456;46.104;12.908;2023-08-06T09:52:48;23.10;99.90
33093;DHT22;19456;46.104;12.908;2023-08-06T09:55:15;23.30;99.90
33093;DHT22;19456;46.104;12.908;2023-08-06T09:57:41;23.30;99.90
33093;DHT22;19456;46.104;12.908;2023-08-06T10:00:08;23.40;99.90
33093;DHT22;19456;46.104;12.908;2023-08-06T10:02:37;23.40;99.90
33093;DHT22;19456;46.104;12.908;2023-08-06T10:05:03;23.50;99.90
33093;DHT22;19456;46.104;12.908;2023-08-06T10:07:29;23.70;99.90
33093;DHT22;19456;46.104;12.908;2023-08-06T10:09:55;23.70;99.90
33093;DHT22;19456;46.104;12.908;2023-08-06T10:12:21;23.70;99.90
33093;DHT22;19456;46.104;12.908;2023-08-06T10:14:47;23.70;99.90
33093;DHT22;19456;46.104;12.908;2023-08-06T10:17:13;23.80;99.90
33093;DHT22;19456;46.104;12.908;2023-08-06T10:19:38;23.80;99.90
33093;DHT22;19456;46.104;12.908;2023-08-06T10:22:08;23.80;99.90
33093;DHT22;19456;46.104;12.908;2023-08-06T10:24:50;24.00;99.90
33093;DHT22;19456;46.104;12.908;2023-08-06T10:27:19;24.20;99.90
33093;DHT22;19456;46.104;12.908;2023-08-06T10:29:45;24.30;99.90
33093;DHT22;19456;46.104;12.908;2023-08-06T10:32:10;24.10;99.90
33093;DHT22;19456;46.104;12.908;2023-08-06T10:34:55;24.00;99.90
33093;DHT22;19456;46.104;12.908;2023-08-06T10:37:21;24.20;99.90
33093;DHT22;19456;46.104;12.908;2023-08-06T10:39:52;24.40;99.90
33093;DHT22;19456;46.104;12.908;2023-08-06T10:42:27;24.70;99.90
33093;DHT22;19456;46.104;12.908;2023-08-06T10:45:12;25.00;99.90
33093;DHT22;19456;46.104;12.908;2023-08-06T10:47:41;25.40;99.90
33093;DHT22;19456;46.104;12.908;2023-08-06T10:50:07;25.50;99.90
33093;DHT22;19456;46.104;12.908;2023-08-06T10:52:34;25.30;99.90
33093;DHT22;19456;46.104;12.908;2023-08-06T10:54:59;25.00;99.90
33093;DHT22;19456;46.104;12.908;2023-08-06T10:57:25;25.10;99.90
33093;DHT22;19456;46.104;12.908;2023-08-06T10:59:51;25.00;99.90
33093;DHT22;19456;46.104;12.908;2023-08-06T11:02:17;25.00;99.90
33093;DHT22;19456;46.104;12.908;2023-08-06T11:04:42;25.00;99.90
33093;DHT22;19456;46.104;12.908;2023-08-06T11:07:08;25.10;99.90
33093;DHT22;19456;46.104;12.908;2023-08-06T11:09:33;25.30;99.90
33093;DHT22;19456;46.104;12.908;2023-08-06T11:11:59;25.70;99.90
33093;DHT22;19456;46.104;12.908;2023-08-06T11:14:24;26.00;99.90
33093;DHT22;19456;46.104;12.908;2023-08-06T11:16:50;26.20;99.90
33093;DHT22;19456;46.104;12.908;2023-08-06T11:19:16;26.70;99.90
33093;DHT22;19456;46.104;12.908;2023-08-06T11:21:42;26.80;99.90
33093;DHT22;19456;46.104;12.908;2023-08-06T11:24:12;27.20;99.90
33093;DHT22;19456;46.104;12.908;2023-08-06T11:26:37;27.00;99.90
33093;DHT22;19456;46.104;12.908;2023-08-06T11:29:05;26.80;99.90
33093;DHT22;19456;46.104;12.908;2023-08-06T11:31:31;27.30;99.90
33093;DHT22;19456;46.104;12.908;2023-08-06T11:33:56;27.50;99.90
33093;DHT22;19456;46.104;12.908;2023-08-06T11:36:32;27.80;99.90
33093;DHT22;19456;46.104;12.908;2023-08-06T11:38:58;28.10;99.90
33093;DHT22;19456;46.104;12.908;2023-08-06T11:41:24;28.30;99.90
33093;DHT22;19456;46.104;12.908;2023-08-06T11:43:49;28.90;99.90
33093;DHT22;19456;46.104;12.908;2023-08-06T11:46:15;29.30;99.90
33093;DHT22;19456;46.104;12.908;2023-08-06T11:48:54;30.20;99.90
33093;DHT22;19456;46.104;12.908;2023-08-06T11:51:23;29.70;99.90
33093;DHT22;19456;46.104;12.908;2023-08-06T11:53:49;29.40;99.90
33093;DHT22;19456;46.104;12.908;2023-08-06T11:56:15;29.00;99.90
33093;DHT22;19456;46.104;12.908;2023-08-06T11:58:41;28.60;99.90
33093;DHT22;19456;46.104;12.908;2023-08-06T12:01:07;28.30;99.90
33093;DHT22;19456;46.104;12.908;2023-08-06T12:03:38;28.40;99.90
33093;DHT22;19456;46.104;12.908;2023-08-06T12:06:04;28.90;99.90
33093;DHT22;19456;46.104;12.908;2023-08-06T12:08:29;29.70;99.90
33093;DHT22;19456;46.104;12.908;2023-08-06T12:10:55;30.10;99.90
33093;DHT22;19456;46.104;12.908;2023-08-06T12:13:20;29.60;99.90
33093;DHT22;19456;46.104;12.908;2023-08-06T12:15:46;28.40;99.90
33093;DHT22;19456;46.104;12.908;2023-08-06T12:18:11;27.80;99.90
33093;DHT22;19456;46.104;12.908;2023-08-06T12:20:37;27.30;99.90
33093;DHT22;19456;46.104;12.908;2023-08-06T12:23:04;26.90;99.90
33093;DHT22;19456;46.104;12.908;2023-08-06T12:25:29;26.60;99.90
33093;DHT22;19456;46.104;12.908;2023-08-06T12:27:55;26.20;99.90
33093;DHT22;19456;46.104;12.908;2023-08-06T12:30:20;26.00;99.90
33093;DHT22;19456;46.104;12.908;2023-08-06T12:32:46;26.00;99.90
33093;DHT22;19456;46.104;12.908;2023-08-06T12:35:12;25.90;99.90
33093;DHT22;19456;46.104;12.908;2023-08-06T12:37:39;25.80;99.90
33093;DHT22;19456;46.104;12.908;2023-08-06T12:40:04;25.80;99.90
33093;DHT22;19456;46.104;12.908;2023-08-06T12:42:30;25.70;99.90
33093;DHT22;19456;46.104;12.908;2023-08-06T12:44:56;25.60;99.90
33093;DHT22;19456;46.104;12.908;2023-08-06T12:47:21;25.40;99.90
33093;DHT22;19456;46.104;12.908;2023-08-06T12:49:47;25.20;99.90
33093;DHT22;19456;46.104;12.908;2023-08-06T12:52:12;25.30;99.90
33093;DHT22;19456;46.104;12.908;2023-08-06T12:54:40;25.50;99.90
33093;DHT22;19456;46.104;12.908;2023-08-06T12:57:06;25.20;99.90
33093;DHT22;19456;46.104;12.908;2023-08-06T12:59:32;24.90;99.90
33093;DHT22;19456;46.104;12.908;2023-08-06T13:02:02;24.60;99.90
33093;DHT22;19456;46.104;12.908;2023-08-06T13:04:27;24.60;99.90
33093;DHT22;19456;46.104;12.908;2023-08-06T13:06:53;24.50;99.90
33093;DHT22;19456;46.104;12.908;2023-08-06T13:09:19;24.40;99.90
33093;DHT22;19456;46.104;12.908;2023-08-06T13:11:44;24.50;99.90
33093;DHT22;19456;46.104;12.908;2023-08-06T13:14:13;24.30;99.90
33093;DHT22;19456;46.104;12.908;2023-08-06T13:16:39;24.30;99.90
33093;DHT22;19456;46.104;12.908;2023-08-06T13:19:05;24.40;99.90
33093;DHT22;19456;46.104;12.908;2023-08-06T13:21:32;24.40;99.90
33093;DHT22;19456;46.104;12.908;2023-08-06T13:23:59;24.20;99.90
33093;DHT22;19456;46.104;12.908;2023-08-06T13:26:25;24.20;99.90
33093;DHT22;19456;46.104;12.908;2023-08-06T13:28:50;24.20;99.90
33093;DHT22;19456;46.104;12.908;2023-08-06T13:31:16;24.00;99.90
33093;DHT22;19456;46.104;12.908;2023-08-06T13:33:41;24.00;99.90
33093;DHT22;19456;46.104;12.908;2023-08-06T13:36:07;23.90;99.90
33093;DHT22;19456;46.104;12.908;2023-08-06T13:38:33;23.90;99.90
33093;DHT22;19456;46.104;12.908;2023-08-06T13:40:58;24.00;99.90
33093;DHT22;19456;46.104;12.908;2023-08-06T13:43:24;23.80;99.90
33093;DHT22;19456;46.104;12.908;2023-08-06T13:45:49;23.70;99.90
33093;DHT22;19456;46.104;12.908;2023-08-06T13:48:15;23.70;99.90
33093;DHT22;19456;46.104;12.908;2023-08-06T13:50:40;23.60;99.90
33093;DHT22;19456;46.104;12.908;2023-08-06T13:53:06;23.70;99.90
33093;DHT22;19456;46.104;12.908;2023-08-06T13:55:32;23.60;99.90
33093;DHT22;19456;46.104;12.908;2023-08-06T13:57:57;23.60;99.90
33093;DHT22;19456;46.104;12.908;2023-08-06T14:00:23;23.60;99.90
33093;DHT22;19456;46.104;12.908;2023-08-06T14:02:48;23.50;99.90
33093;DHT22;19456;46.104;12.908;2023-08-06T14:05:14;23.50;99.90
33093;DHT22;19456;46.104;12.908;2023-08-06T14:07:39;23.40;99.90
33093;DHT22;19456;46.104;12.908;2023-08-06T14:10:05;23.30;99.90
33093;DHT22;19456;46.104;12.908;2023-08-06T14:12:31;23.20;99.90
33093;DHT22;19456;46.104;12.908;2023-08-06T14:14:57;23.10;99.90
33093;DHT22;19456;46.104;12.908;2023-08-06T14:17:22;22.80;99.90
33093;DHT22;19456;46.104;12.908;2023-08-06T14:19:48;22.60;99.90
33093;DHT22;19456;46.104;12.908;2023-08-06T14:22:13;22.40;99.90
33093;DHT22;19456;46.104;12.908;2023-08-06T14:24:39;22.20;99.90
33093;DHT22;19456;46.104;12.908;2023-08-06T14:27:05;22.00;99.90
33093;DHT22;19456;46.104;12.908;2023-08-06T14:29:31;21.90;99.90
33093;DHT22;19456;46.104;12.908;2023-08-06T14:31:57;21.90;99.90
33093;DHT22;19456;46.104;12.908;2023-08-06T14:34:22;21.90;99.90
33093;DHT22;19456;46.104;12.908;2023-08-06T14:36:48;21.80;99.90
33093;DHT22;19456;46.104;12.908;2023-08-06T14:39:13;21.80;99.90
33093;DHT22;19456;46.104;12.908;2023-08-06T14:41:39;21.80;99.90
33093;DHT22;19456;46.104;12.908;2023-08-06T14:44:04;21.90;99.90
33093;DHT22;19456;46.104;12.908;2023-08-06T14:46:30;21.80;99.90
33093;DHT22;19456;46.104;12.908;2023-08-06T14:48:56;21.90;99.90
33093;DHT22;19456;46.104;12.908;2023-08-06T14:51:21;21.90;99.90
33093;DHT22;19456;46.104;12.908;2023-08-06T14:53:47;21.80;99.90
33093;DHT22;19456;46.104;12.908;2023-08-06T14:56:13;21.70;99.90
33093;DHT22;19456;46.104;12.908;2023-08-06T14:58:38;21.60;99.90
33093;DHT22;19456;46.104;12.908;2023-08-06T15:01:04;21.50;99.90
33093;DHT22;19456;46.104;12.908;2023-08-06T15:03:29;21.50;99.90
33093;DHT22;19456;46.104;12.908;2023-08-06T15:05:56;21.50;99.90
33093;DHT22;19456;46.104;12.908;2023-08-06T15:08:22;21.60;99.90
33093;DHT22;19456;46.104;12.908;2023-08-06T15:10:51;21.50;99.90
33093;DHT22;19456;46.104;12.908;2023-08-06T15:13:18;21.60;99.90
33093;DHT22;19456;46.104;12.908;2023-08-06T15:15:45;21.60;99.90